Time;durP1;ratioP1;P1;durP2;ratioP2;P2;SDS_P1;SDS_P2;PMS_P1;PMS_P2;Temp;Humidity;BMP_temperature;BMP_pressure;BME280_temperature;BME280_humidity;BME280_pressure;Samples;Min_cycle;Max_cycle;Signal;HPM_P1;HPM_P2
2022/11/14 00:00:55;;;;;;;8.43;6.43;;;;;13.40;101425.00;;;;5051954;28;20202;-77
2022/11/14 00:03:22;;;;;;;9.23;6.80;;;;;13.40;101420.00;;;;5067098;28;20210;-77
2022/11/14 00:05:51;;;;;;;9.38;6.70;;;;;13.40;101419.00;;;;5061670;28;20212;-78
2022/11/14 00:08:20;;;;;;;8.05;6.70;;;;;13.40;101417.00;;;;5051247;28;20539;-77
2022/11/14 00:10:48;;;;;;;9.55;7.13;;;;;13.40;101419.00;;;;5062704;28;20196;-78
2022/11/14 00:13:16;;;;;;;10.20;6.72;;;;;13.30;101418.00;;;;5068795;28;20229;-78
2022/11/14 00:15:44;;;;;;;8.57;7.45;;;;;13.30;101412.00;;;;5068674;28;20207;-78
2022/11/14 00:18:12;;;;;;;10.88;6.60;;;;;13.30;101410.00;;;;5051405;28;20192;-78
2022/11/14 00:20:39;;;;;;;9.02;7.10;;;;;13.30;101405.00;;;;5054574;28;20194;-78
2022/11/14 00:23:08;;;;;;;8.85;6.68;;;;;13.20;101412.00;;;;5056326;28;20198;-78
2022/11/14 00:25:35;;;;;;;9.02;7.03;;;;;13.20;101410.00;;;;5069022;28;20198;-78
2022/11/14 00:28:02;;;;;;;10.57;7.63;;;;;13.20;101409.00;;;;5070419;28;20242;-78
2022/11/14 00:30:29;;;;;;;10.68;7.75;;;;;13.20;101412.00;;;;5062651;28;20199;-78
2022/11/14 00:32:57;;;;;;;8.98;7.22;;;;;13.20;101416.00;;;;5055342;28;20211;-78
2022/11/14 00:35:24;;;;;;;12.05;8.35;;;;;13.10;101420.00;;;;5055544;28;20234;-78
2022/11/14 00:37:51;;;;;;;11.88;7.88;;;;;13.10;101420.00;;;;5068232;28;20201;-78
2022/11/14 00:40:20;;;;;;;10.10;7.55;;;;;13.10;101405.00;;;;5070565;28;20205;-77
2022/11/14 00:42:47;;;;;;;10.73;8.07;;;;;13.10;101406.00;;;;5061313;28;20212;-77
2022/11/14 00:45:14;;;;;;;8.80;6.93;;;;;13.10;101418.00;;;;5049905;28;20200;-78
2022/11/14 00:47:42;;;;;;;9.07;7.30;;;;;13.00;101416.00;;;;5050661;28;21123;-77
2022/11/14 00:50:10;;;;;;;9.63;7.55;;;;;13.00;101417.00;;;;5051279;28;20215;-78
2022/11/14 00:52:37;;;;;;;11.05;8.15;;;;;13.00;101414.00;;;;5057374;28;20856;-78
2022/11/14 00:55:06;;;;;;;9.50;6.78;;;;;13.00;101407.00;;;;5056782;28;20207;-77
2022/11/14 00:57:35;;;;;;;11.80;8.15;;;;;13.00;101407.00;;;;5049709;28;20223;-78
2022/11/14 01:00:02;;;;;;;9.60;7.72;;;;;13.00;101403.00;;;;5068602;28;20199;-77
2022/11/14 01:02:29;;;;;;;10.05;7.65;;;;;12.90;101400.00;;;;5063004;28;20195;-77
2022/11/14 01:04:59;;;;;;;11.52;8.20;;;;;12.90;101393.00;;;;5048867;28;20199;-78
2022/11/14 01:07:26;;;;;;;10.90;7.93;;;;;12.90;101393.00;;;;5063601;28;20218;-77
2022/11/14 01:09:53;;;;;;;10.77;8.10;;;;;12.90;101385.00;;;;5069906;28;20195;-78
2022/11/14 01:12:20;;;;;;;11.40;8.13;;;;;12.80;101385.00;;;;5068340;28;20191;-78
2022/11/14 01:14:49;;;;;;;12.25;9.07;;;;;12.80;101377.00;;;;5069040;28;20202;-78
2022/11/14 01:17:16;;;;;;;12.65;8.73;;;;;12.80;101374.00;;;;5069296;28;20206;-78
2022/11/14 01:19:43;;;;;;;12.38;8.63;;;;;12.80;101364.00;;;;5061670;28;20195;-78
2022/11/14 01:22:11;;;;;;;12.23;8.90;;;;;12.70;101361.00;;;;5050264;28;20200;-78
2022/11/14 01:24:38;;;;;;;11.75;8.65;;;;;12.70;101370.00;;;;5060385;28;20203;-78
2022/11/14 01:27:05;;;;;;;11.77;8.07;;;;;12.70;101365.00;;;;5069928;28;20233;-78
2022/11/14 01:29:33;;;;;;;12.57;9.18;;;;;12.70;101358.00;;;;5070090;28;20614;-78
2022/11/14 01:32:01;;;;;;;12.57;9.82;;;;;12.60;101349.00;;;;5069761;28;20206;-77
2022/11/14 01:34:29;;;;;;;12.70;8.57;;;;;12.70;101347.00;;;;5050350;28;21055;-77
2022/11/14 01:36:56;;;;;;;12.23;9.32;;;;;12.60;101345.00;;;;5049589;28;20581;-78
2022/11/14 01:39:25;;;;;;;14.65;10.75;;;;;12.60;101338.00;;;;5049404;28;20188;-78
2022/11/14 01:41:53;;;;;;;15.43;10.25;;;;;12.60;101344.00;;;;5056353;28;20202;-78
2022/11/14 01:44:41;;;;;;;12.23;9.43;;;;;12.50;101335.00;;;;5063242;28;20188;-79
2022/11/14 01:47:11;;;;;;;14.40;9.77;;;;;12.50;101331.00;;;;5049711;28;20231;-79
2022/11/14 01:49:41;;;;;;;13.13;9.30;;;;;12.50;101322.00;;;;5049897;28;20194;-78
2022/11/14 01:52:11;;;;;;;14.27;10.20;;;;;12.50;101318.00;;;;5050074;28;20202;-78
2022/11/14 01:54:44;;;;;;;13.50;9.45;;;;;12.50;101314.00;;;;5069599;28;20198;-78
2022/11/14 01:57:14;;;;;;;15.45;10.13;;;;;12.50;101304.00;;;;5067505;28;20198;-79
2022/11/14 01:59:49;;;;;;;15.48;10.57;;;;;12.40;101304.00;;;;5050300;28;20206;-79
2022/11/14 02:02:20;;;;;;;13.05;10.50;;;;;12.40;101307.00;;;;5056023;28;20212;-79
2022/11/14 02:04:51;;;;;;;16.13;9.75;;;;;12.40;101305.00;;;;5068832;28;20218;-78
2022/11/14 02:07:19;;;;;;;12.02;9.68;;;;;12.40;101310.00;;;;5068663;28;20223;-79
2022/11/14 02:09:48;;;;;;;14.02;9.85;;;;;12.40;101298.00;;;;5069608;28;20232;-79
2022/11/14 02:12:18;;;;;;;14.70;10.93;;;;;12.40;101293.00;;;;5067880;28;20209;-79
2022/11/14 02:14:48;;;;;;;15.68;11.00;;;;;12.40;101295.00;;;;5055354;28;20200;-78
2022/11/14 02:17:19;;;;;;;16.85;11.25;;;;;12.30;101292.00;;;;5054541;28;20196;-78
2022/11/14 02:19:49;;;;;;;15.05;11.00;;;;;12.30;101283.00;;;;5049291;28;20212;-78
2022/11/14 02:22:18;;;;;;;18.67;11.85;;;;;12.30;101281.00;;;;5052560;28;20199;-78
2022/11/14 02:24:46;;;;;;;16.10;11.63;;;;;12.30;101282.00;;;;5069011;28;20199;-78
2022/11/14 02:27:15;;;;;;;14.77;10.38;;;;;12.30;101283.00;;;;5053083;28;20226;-78
2022/11/14 02:29:43;;;;;;;16.65;11.55;;;;;12.20;101284.00;;;;5064102;28;20669;-79
2022/11/14 02:32:10;;;;;;;16.35;12.32;;;;;12.20;101278.00;;;;5061327;28;20589;-78
2022/11/14 02:34:37;;;;;;;16.17;11.38;;;;;12.20;101287.00;;;;5048642;28;20227;-79
2022/11/14 02:37:05;;;;;;;18.67;12.43;;;;;12.20;101281.00;;;;5048752;28;20298;-78
2022/11/14 02:39:34;;;;;;;15.13;11.52;;;;;12.10;101268.00;;;;5047576;28;20678;-78
2022/11/14 02:42:01;;;;;;;17.00;11.43;;;;;12.10;101276.00;;;;5049214;28;20650;-79
2022/11/14 02:44:28;;;;;;;17.40;11.90;;;;;12.10;101277.00;;;;5061683;28;20236;-79
2022/11/14 02:46:55;;;;;;;17.58;12.32;;;;;12.10;101279.00;;;;5048588;28;20223;-78
2022/11/14 02:49:23;;;;;;;15.38;11.40;;;;;12.10;101274.00;;;;5056428;28;20210;-79
2022/11/14 02:51:50;;;;;;;17.05;11.38;;;;;12.00;101266.00;;;;5061474;28;20192;-78
2022/11/14 02:54:17;;;;;;;19.13;12.55;;;;;12.00;101268.00;;;;5047993;28;20685;-79
2022/11/14 02:56:46;;;;;;;18.27;11.95;;;;;12.00;101258.00;;;;5048263;28;20202;-79
2022/11/14 02:59:13;;;;;;;19.00;11.75;;;;;12.00;101261.00;;;;5048083;28;20199;-79
2022/11/14 03:01:40;;;;;;;18.17;12.48;;;;;12.00;101255.00;;;;5047333;28;20202;-79
2022/11/14 03:04:08;;;;;;;17.77;12.38;;;;;11.90;101261.00;;;;5048915;28;20712;-79
2022/11/14 03:06:35;;;;;;;18.52;12.02;;;;;11.90;101263.00;;;;5058075;28;20218;-78
2022/11/14 03:09:02;;;;;;;20.70;13.18;;;;;11.90;101262.00;;;;5057918;28;20198;-78
2022/11/14 03:11:30;;;;;;;17.35;11.18;;;;;11.90;101256.00;;;;5047335;28;20196;-79
2022/11/14 03:13:59;;;;;;;17.17;11.90;;;;;11.80;101262.00;;;;5062173;28;20207;-78
2022/11/14 03:16:27;;;;;;;17.13;12.35;;;;;11.90;101257.00;;;;5047634;28;20212;-79
2022/11/14 03:18:54;;;;;;;17.20;11.85;;;;;11.80;101253.00;;;;5048272;28;20203;-78
2022/11/14 03:21:23;;;;;;;18.20;11.90;;;;;11.80;101246.00;;;;5047626;28;20565;-79
2022/11/14 03:23:51;;;;;;;19.08;12.27;;;;;11.80;101242.00;;;;5059221;28;20202;-78
2022/11/14 03:26:18;;;;;;;17.42;12.23;;;;;11.80;101237.00;;;;5057260;28;20583;-79
2022/11/14 03:28:46;;;;;;;20.05;12.70;;;;;11.80;101231.00;;;;5047686;28;20304;-79
2022/11/14 03:31:15;;;;;;;17.15;12.38;;;;;11.70;101228.00;;;;5047554;28;20826;-78
2022/11/14 03:33:42;;;;;;;17.02;11.75;;;;;11.70;101226.00;;;;5048522;28;20211;-79
2022/11/14 03:36:10;;;;;;;20.10;12.90;;;;;11.70;101222.00;;;;5047543;28;20235;-79
2022/11/14 03:38:37;;;;;;;20.30;12.63;;;;;11.70;101219.00;;;;5048310;28;20191;-78
2022/11/14 03:41:04;;;;;;;18.42;11.80;;;;;11.70;101212.00;;;;5061654;28;20564;-79
2022/11/14 03:43:33;;;;;;;18.92;13.10;;;;;11.70;101219.00;;;;5071026;28;20203;-78
2022/11/14 03:46:02;;;;;;;21.33;14.23;;;;;11.60;101213.00;;;;5064564;28;20422;-79
2022/11/14 03:48:31;;;;;;;18.13;11.93;;;;;11.60;101217.00;;;;5050046;28;20709;-78
2022/11/14 03:50:58;;;;;;;18.63;11.75;;;;;11.60;101214.00;;;;5051311;28;20218;-78
2022/11/14 03:53:27;;;;;;;21.02;12.70;;;;;11.60;101213.00;;;;5051408;28;20272;-78
2022/11/14 03:55:54;;;;;;;21.88;12.93;;;;;11.60;101211.00;;;;5050799;28;20195;-79
2022/11/14 03:58:22;;;;;;;20.02;12.70;;;;;11.60;101207.00;;;;5050933;28;20203;-78
2022/11/14 04:00:49;;;;;;;18.42;11.35;;;;;11.60;101201.00;;;;5052273;28;20207;-79
2022/11/14 04:03:16;;;;;;;19.02;11.93;;;;;11.60;101205.00;;;;5070002;28;20377;-78
2022/11/14 04:05:45;;;;;;;18.48;11.77;;;;;11.50;101201.00;;;;5071463;28;20195;-79
2022/11/14 04:08:13;;;;;;;18.23;12.32;;;;;11.60;101210.00;;;;5050959;28;20231;-78
2022/11/14 04:10:41;;;;;;;17.50;11.57;;;;;11.50;101204.00;;;;5050425;28;20202;-79
2022/11/14 04:13:09;;;;;;;17.38;11.45;;;;;11.50;101204.00;;;;5050357;28;20269;-79
2022/11/14 04:15:36;;;;;;;20.80;13.50;;;;;11.50;101199.00;;;;5052209;28;20591;-78
2022/11/14 04:18:04;;;;;;;18.27;12.00;;;;;11.50;101196.00;;;;5051047;28;20681;-79
2022/11/14 04:20:31;;;;;;;19.52;11.82;;;;;11.50;101194.00;;;;5050212;28;20207;-79
2022/11/14 04:23:00;;;;;;;17.85;11.38;;;;;11.50;101195.00;;;;5050537;28;20203;-79
2022/11/14 04:25:27;;;;;;;16.55;10.57;;;;;11.50;101193.00;;;;5062551;28;20207;-79
2022/11/14 04:27:54;;;;;;;17.48;11.00;;;;;11.40;101193.00;;;;5050438;28;20226;-79
2022/11/14 04:30:22;;;;;;;20.92;12.45;;;;;11.40;101186.00;;;;5050276;28;20666;-79
2022/11/14 04:32:50;;;;;;;18.27;11.55;;;;;11.40;101193.00;;;;5050411;28;20207;-79
2022/11/14 04:35:17;;;;;;;17.85;11.27;;;;;11.40;101186.00;;;;5050008;28;20227;-79
2022/11/14 04:37:45;;;;;;;17.55;11.27;;;;;11.40;101187.00;;;;5050358;28;20223;-79
2022/11/14 04:40:14;;;;;;;18.10;11.80;;;;;11.40;101185.00;;;;5050078;28;20208;-79
2022/11/14 04:42:42;;;;;;;17.85;11.57;;;;;11.40;101182.00;;;;5050413;28;20203;-79
2022/11/14 04:45:10;;;;;;;17.42;11.05;;;;;11.30;101173.00;;;;5050250;28;20231;-79
2022/11/14 04:47:37;;;;;;;18.75;10.82;;;;;11.30;101171.00;;;;5051149;28;21092;-78
2022/11/14 04:50:05;;;;;;;18.90;11.85;;;;;11.30;101165.00;;;;5069548;28;20657;-79
2022/11/14 04:52:33;;;;;;;19.05;12.10;;;;;11.30;101166.00;;;;5050776;28;20204;-79
2022/11/14 04:55:00;;;;;;;17.73;11.60;;;;;11.30;101160.00;;;;5050301;28;20195;-79
2022/11/14 04:57:28;;;;;;;17.23;10.98;;;;;11.20;101155.00;;;;5050342;28;20696;-79
2022/11/14 04:59:56;;;;;;;17.13;10.93;;;;;11.20;101157.00;;;;5054058;28;20202;-78
2022/11/14 05:02:23;;;;;;;18.63;11.77;;;;;11.20;101150.00;;;;5066035;28;20583;-78
2022/11/14 05:04:50;;;;;;;17.23;10.55;;;;;11.20;101153.00;;;;5066949;28;20583;-79
2022/11/14 05:07:17;;;;;;;15.90;10.55;;;;;11.20;101144.00;;;;5049902;28;20204;-79
2022/11/14 05:09:45;;;;;;;17.60;11.32;;;;;11.20;101145.00;;;;5050678;28;20649;-79
2022/11/14 05:12:12;;;;;;;17.55;11.75;;;;;11.10;101139.00;;;;5057754;28;20195;-76
2022/11/14 05:14:41;;;;;;;18.13;11.25;;;;;11.10;101138.00;;;;5061244;28;20203;-76
2022/11/14 05:17:08;;;;;;;16.08;10.75;;;;;11.10;101135.00;;;;5065694;28;20202;-76
2022/11/14 05:19:35;;;;;;;17.30;10.65;;;;;11.10;101134.00;;;;5068802;28;20206;-77
2022/11/14 05:22:02;;;;;;;15.77;10.25;;;;;11.10;101143.00;;;;5053550;28;20195;-77
2022/11/14 05:24:30;;;;;;;18.33;10.93;;;;;11.10;101145.00;;;;5049664;28;20203;-77
2022/11/14 05:26:58;;;;;;;16.40;10.20;;;;;11.00;101141.00;;;;5050358;28;20216;-77
2022/11/14 05:29:25;;;;;;;17.48;10.15;;;;;11.00;101137.00;;;;5048224;28;20222;-77
2022/11/14 05:31:54;;;;;;;19.35;10.75;;;;;11.00;101139.00;;;;5048807;28;20199;-77
2022/11/14 05:34:21;;;;;;;15.60;10.23;;;;;11.00;101139.00;;;;5048303;28;20668;-77
2022/11/14 05:36:48;;;;;;;16.60;10.88;;;;;10.90;101136.00;;;;5048248;28;20204;-77
2022/11/14 05:39:16;;;;;;;14.10;9.75;;;;;10.90;101130.00;;;;5056644;28;20586;-77
2022/11/14 05:41:43;;;;;;;15.52;10.23;;;;;10.90;101130.00;;;;5049642;28;20206;-77
2022/11/14 05:44:10;;;;;;;14.73;9.43;;;;;10.90;101130.00;;;;5049591;28;20222;-77
2022/11/14 05:46:38;;;;;;;15.30;9.90;;;;;10.80;101129.00;;;;5047921;28;20224;-77
2022/11/14 05:49:06;;;;;;;16.38;10.52;;;;;10.80;101125.00;;;;5053862;28;20649;-77
2022/11/14 05:51:33;;;;;;;15.40;10.00;;;;;10.80;101127.00;;;;5067409;28;20481;-77
2022/11/14 05:54:01;;;;;;;13.10;9.35;;;;;10.80;101131.00;;;;5068711;28;20198;-77
2022/11/14 05:56:28;;;;;;;17.25;11.05;;;;;10.70;101126.00;;;;5057613;28;20203;-77
2022/11/14 05:58:55;;;;;;;16.17;9.63;;;;;10.70;101119.00;;;;5048535;28;20205;-77
2022/11/14 06:01:22;;;;;;;16.10;9.82;;;;;10.70;101118.00;;;;5060596;28;20191;-77
2022/11/14 06:03:50;;;;;;;17.85;10.20;;;;;10.70;101112.00;;;;5068222;28;20198;-77
2022/11/14 06:06:20;;;;;;;15.32;9.77;;;;;10.60;101115.00;;;;5067691;28;20210;-77
2022/11/14 06:08:48;;;;;;;14.15;9.25;;;;;10.60;101123.00;;;;5067790;28;20245;-77
2022/11/14 06:11:18;;;;;;;13.73;9.40;;;;;10.60;101120.00;;;;5047836;28;20191;-77
2022/11/14 06:13:46;;;;;;;14.68;10.13;;;;;10.60;101112.00;;;;5047761;28;20206;-77
2022/11/14 06:16:15;;;;;;;15.60;9.77;;;;;10.50;101115.00;;;;5058094;28;20199;-77
2022/11/14 06:18:43;;;;;;;15.35;9.18;;;;;10.50;101121.00;;;;5050111;28;20203;-77
2022/11/14 06:21:13;;;;;;;14.80;9.95;;;;;10.50;101118.00;;;;5063917;28;20198;-77
2022/11/14 06:23:42;;;;;;;15.25;10.18;;;;;10.50;101107.00;;;;5050729;28;20199;-77
2022/11/14 06:26:19;;;;;;;15.80;8.98;;;;;10.40;101096.00;;;;5048297;28;20206;-77
2022/11/14 06:28:48;;;;;;;13.68;9.07;;;;;10.50;101104.00;;;;5049687;28;20219;-76
2022/11/14 06:31:15;;;;;;;14.30;9.38;;;;;10.40;101116.00;;;;5052847;28;20227;-76
2022/11/14 06:33:42;;;;;;;14.23;9.02;;;;;10.40;101116.00;;;;5047959;28;20652;-76
2022/11/14 06:36:10;;;;;;;15.73;9.68;;;;;10.40;101123.00;;;;5047650;28;20231;-76
2022/11/14 06:38:39;;;;;;;17.02;10.15;;;;;10.40;101120.00;;;;5060078;28;20198;-76
2022/11/14 06:41:09;;;;;;;15.07;9.02;;;;;10.30;101119.00;;;;5049907;28;20654;-76
2022/11/14 06:43:38;;;;;;;15.40;9.50;;;;;10.30;101116.00;;;;5050057;28;20658;-76
2022/11/14 06:46:07;;;;;;;13.68;9.10;;;;;10.30;101120.00;;;;5047199;28;20211;-75
2022/11/14 06:48:35;;;;;;;16.00;9.55;;;;;10.30;101115.00;;;;5048299;28;20246;-76
2022/11/14 06:51:03;;;;;;;15.18;9.45;;;;;10.30;101119.00;;;;5048254;28;20208;-77
2022/11/14 06:53:31;;;;;;;16.30;9.60;;;;;10.30;101124.00;;;;5047743;28;20210;-77
2022/11/14 06:56:00;;;;;;;14.23;9.55;;;;;10.20;101123.00;;;;5047726;28;20207;-77
2022/11/14 06:58:30;;;;;;;17.55;10.40;;;;;10.20;101121.00;;;;5047033;28;20204;-76
2022/11/14 07:01:02;;;;;;;14.98;9.23;;;;;10.20;101124.00;;;;5050543;28;20207;-77
2022/11/14 07:03:30;;;;;;;13.77;9.10;;;;;10.20;101124.00;;;;5049044;28;20204;-77
2022/11/14 07:05:58;;;;;;;16.80;9.63;;;;;10.20;101118.00;;;;5054405;28;20196;-77
2022/11/14 07:08:26;;;;;;;15.75;9.75;;;;;10.20;101121.00;;;;5049310;28;20607;-77
2022/11/14 07:10:53;;;;;;;13.80;9.18;;;;;10.20;101123.00;;;;5056557;28;20668;-77
2022/11/14 07:13:20;;;;;;;13.90;9.20;;;;;10.10;101108.00;;;;5049528;28;20692;-78
2022/11/14 07:15:53;;;;;;;12.43;7.90;;;;;10.10;101107.00;;;;5048410;28;20187;-77
2022/11/14 07:18:20;;;;;;;14.80;8.00;;;;;10.10;101112.00;;;;5047989;28;20214;-77
2022/11/14 07:20:48;;;;;;;14.93;8.77;;;;;10.10;101108.00;;;;5051079;28;20198;-77
2022/11/14 07:23:15;;;;;;;11.55;7.68;;;;;10.10;101120.00;;;;5055636;28;20191;-77
2022/11/14 07:25:43;;;;;;;14.00;8.25;;;;;10.20;101122.00;;;;5068080;28;20278;-77
2022/11/14 07:28:10;;;;;;;12.27;7.43;;;;;10.20;101126.00;;;;5069239;28;20219;-77
2022/11/14 07:30:37;;;;;;;11.55;7.93;;;;;10.20;101125.00;;;;5049200;28;20207;-77
2022/11/14 07:33:06;;;;;;;12.57;7.72;;;;;10.20;101125.00;;;;5052191;28;20207;-77
2022/11/14 07:35:33;;;;;;;14.10;8.57;;;;;10.30;101125.00;;;;5048745;28;20582;-76
2022/11/14 07:38:05;;;;;;;12.68;8.07;;;;;10.30;101128.00;;;;5062265;28;20199;-78
2022/11/14 07:40:32;;;;;;;11.13;7.25;;;;;10.30;101123.00;;;;5049941;28;20202;-77
2022/11/14 07:43:00;;;;;;;12.45;7.90;;;;;10.40;101121.00;;;;5062860;28;20204;-77
2022/11/14 07:45:28;;;;;;;11.18;7.20;;;;;10.50;101133.00;;;;5054099;28;20201;-77
2022/11/14 07:47:56;;;;;;;11.50;7.82;;;;;10.50;101125.00;;;;5059207;28;20203;-76
2022/11/14 07:50:25;;;;;;;13.73;8.27;;;;;10.60;101119.00;;;;5049129;28;20245;-77
2022/11/14 07:52:53;;;;;;;10.48;7.55;;;;;10.70;101119.00;;;;5047693;28;20318;-76
2022/11/14 07:55:21;;;;;;;13.07;8.50;;;;;10.70;101116.00;;;;5054104;28;20210;-77
2022/11/14 07:57:52;;;;;;;11.48;7.55;;;;;10.80;101114.00;;;;5065311;28;20202;-76
2022/11/14 08:00:19;;;;;;;13.65;8.50;;;;;10.80;101107.00;;;;5058185;28;20205;-76
2022/11/14 08:02:47;;;;;;;11.55;8.05;;;;;10.90;101102.00;;;;5059247;28;20654;-76
2022/11/14 08:05:15;;;;;;;10.75;7.43;;;;;11.00;101099.00;;;;5050196;28;20200;-77
2022/11/14 08:07:44;;;;;;;11.63;7.38;;;;;11.00;101096.00;;;;5049785;28;20214;-77
2022/11/14 08:10:13;;;;;;;12.00;8.25;;;;;11.10;101093.00;;;;5055932;28;20274;-76
2022/11/14 08:12:40;;;;;;;12.15;7.30;;;;;11.20;101086.00;;;;5055807;28;20192;-77
2022/11/14 08:15:09;;;;;;;12.52;7.35;;;;;11.20;101090.00;;;;5053439;28;20184;-77
2022/11/14 08:17:37;;;;;;;11.25;7.97;;;;;11.30;101090.00;;;;5048926;28;20195;-77
2022/11/14 08:20:05;;;;;;;10.95;8.07;;;;;11.40;101081.00;;;;5057002;28;20199;-77
2022/11/14 08:22:32;;;;;;;10.68;7.40;;;;;11.50;101080.00;;;;5049571;28;20203;-77
2022/11/14 08:25:01;;;;;;;11.50;7.68;;;;;11.50;101081.00;;;;5057159;28;20205;-77
2022/11/14 08:27:29;;;;;;;13.07;8.52;;;;;11.60;101086.00;;;;5049849;28;20199;-77
2022/11/14 08:29:56;;;;;;;10.63;7.03;;;;;11.60;101088.00;;;;5060635;28;20229;-78
2022/11/14 08:32:24;;;;;;;10.15;6.80;;;;;11.70;101090.00;;;;5051838;28;20199;-78
2022/11/14 08:34:51;;;;;;;11.90;7.68;;;;;11.80;101087.00;;;;5056074;28;20215;-77
2022/11/14 08:37:18;;;;;;;9.73;7.50;;;;;11.80;101092.00;;;;5056001;28;20226;-77
2022/11/14 08:39:45;;;;;;;10.32;8.07;;;;;11.90;101089.00;;;;5054883;28;20220;-77
2022/11/14 08:42:14;;;;;;;11.27;7.45;;;;;11.90;101089.00;;;;5049691;28;20693;-77
2022/11/14 08:44:41;;;;;;;9.52;7.10;;;;;12.00;101080.00;;;;5053187;28;20203;-77
2022/11/14 08:47:09;;;;;;;11.60;7.65;;;;;12.10;101086.00;;;;5050322;28;20596;-78
2022/11/14 08:49:36;;;;;;;12.65;7.97;;;;;12.10;101077.00;;;;5060380;28;20696;-77
2022/11/14 08:52:03;;;;;;;12.13;7.78;;;;;12.20;101072.00;;;;5061026;28;20195;-77
2022/11/14 08:54:31;;;;;;;12.05;8.05;;;;;12.20;101065.00;;;;5052833;28;20203;-77
2022/11/14 08:56:58;;;;;;;10.13;7.53;;;;;12.30;101074.00;;;;5050542;28;20206;-78
2022/11/14 08:59:27;;;;;;;11.05;7.47;;;;;12.40;101086.00;;;;5050935;28;20199;-77
2022/11/14 09:01:54;;;;;;;10.48;7.57;;;;;12.40;101075.00;;;;5050358;28;20199;-77
2022/11/14 09:04:21;;;;;;;12.63;8.48;;;;;12.50;101081.00;;;;5051713;28;20218;-77
2022/11/14 09:06:50;;;;;;;11.63;8.13;;;;;12.50;101078.00;;;;5056678;28;20200;-77
2022/11/14 09:09:17;;;;;;;10.15;7.60;;;;;12.60;101081.00;;;;5052224;28;20223;-76
2022/11/14 09:11:45;;;;;;;11.48;7.82;;;;;12.60;101081.00;;;;5060917;28;20202;-78
2022/11/14 09:14:12;;;;;;;11.82;8.73;;;;;12.70;101080.00;;;;5054177;28;20199;-77
2022/11/14 09:16:41;;;;;;;12.75;8.80;;;;;12.70;101074.00;;;;5053446;28;20202;-77
2022/11/14 09:19:08;;;;;;;8.70;7.28;;;;;12.80;101062.00;;;;5054937;28;20242;-77
2022/11/14 09:21:35;;;;;;;13.90;8.00;;;;;12.90;101065.00;;;;5053562;28;20207;-76
2022/11/14 09:24:02;;;;;;;11.07;7.65;;;;;12.90;101065.00;;;;5056166;28;20199;-77
2022/11/14 09:26:30;;;;;;;10.65;8.00;;;;;13.00;101055.00;;;;5052116;28;20210;-77
2022/11/14 09:28:57;;;;;;;11.05;7.85;;;;;13.10;101066.00;;;;5050486;28;20809;-76
2022/11/14 09:31:25;;;;;;;10.60;7.78;;;;;13.10;101053.00;;;;5048441;28;20203;-77
2022/11/14 09:33:53;;;;;;;11.75;7.72;;;;;13.20;101054.00;;;;5058478;28;20988;-77
2022/11/14 09:36:21;;;;;;;10.40;7.45;;;;;13.20;101043.00;;;;5057830;28;20237;-77
2022/11/14 09:38:50;;;;;;;11.27;8.23;;;;;13.30;101048.00;;;;5058858;28;20204;-77
2022/11/14 09:41:25;;;;;;;11.85;7.72;;;;;13.30;101050.00;;;;5058275;28;20215;-77
2022/11/14 09:44:13;;;;;;;10.07;7.40;;;;;13.30;101048.00;;;;5048612;28;20198;-77
2022/11/14 09:46:43;;;;;;;8.68;7.25;;;;;13.40;101036.00;;;;5059477;28;20227;-77
2022/11/14 09:49:29;;;;;;;12.30;8.45;;;;;13.40;101047.00;;;;5061151;28;20219;-77
2022/11/14 09:52:03;;;;;;;11.23;8.45;;;;;13.50;101042.00;;;;5051417;28;20559;-78
2022/11/14 09:54:41;;;;;;;12.05;8.52;;;;;13.60;101044.00;;;;5050716;28;20558;-78
2022/11/14 09:57:15;;;;;;;11.35;8.00;;;;;13.60;101044.00;;;;5050455;28;20600;-78
2022/11/14 09:59:43;;;;;;;9.45;7.20;;;;;13.80;101040.00;;;;5050026;28;20195;-78
2022/11/14 10:02:33;;;;;;;12.05;7.50;;;;;13.80;101048.00;;;;5049897;28;20195;-78
2022/11/14 10:05:24;;;;;;;12.13;7.43;;;;;13.80;101045.00;;;;5055402;28;20203;-78
2022/11/14 10:08:24;;;;;;;11.68;8.50;;;;;13.90;101043.00;;;;5062367;28;20203;-79
2022/11/14 10:10:55;;;;;;;12.45;8.55;;;;;14.00;101046.00;;;;5050503;28;20223;-80
2022/11/14 10:13:51;;;;;;;9.93;7.82;;;;;14.00;101038.00;;;;5057906;28;20202;-79
2022/11/14 10:16:25;;;;;;;11.15;7.95;;;;;14.20;101039.00;;;;5052436;28;20196;-79
2022/11/14 10:19:07;;;;;;;9.77;7.63;;;;;14.20;101033.00;;;;5049707;28;20196;-79
2022/11/14 10:21:46;;;;;;;10.77;8.52;;;;;14.30;101030.00;;;;5051043;28;20687;-77
2022/11/14 10:24:31;;;;;;;11.05;7.15;;;;;14.30;101028.00;;;;5054814;28;20203;-78
2022/11/14 10:27:02;;;;;;;10.70;8.05;;;;;14.40;101027.00;;;;5052454;28;20191;-78
2022/11/14 10:29:42;;;;;;;13.00;8.82;;;;;14.50;101029.00;;;;5048785;28;20227;-78
2022/11/14 10:32:24;;;;;;;10.75;8.45;;;;;14.60;101026.00;;;;5047069;28;20203;-78
2022/11/14 10:35:00;;;;;;;10.50;8.25;;;;;14.70;101026.00;;;;5047288;28;20728;-78
2022/11/14 10:37:36;;;;;;;12.35;8.80;;;;;14.70;101028.00;;;;5048640;28;20199;-78
2022/11/14 10:40:15;;;;;;;12.82;8.60;;;;;14.80;101024.00;;;;5049436;28;20218;-78
2022/11/14 10:42:46;;;;;;;12.73;8.95;;;;;14.80;101021.00;;;;5057331;28;20294;-78
2022/11/14 10:45:23;;;;;;;11.57;8.30;;;;;14.90;101015.00;;;;5057573;28;20963;-79
2022/11/14 10:47:55;;;;;;;10.00;7.78;;;;;15.00;101012.00;;;;5046416;28;20211;-79
2022/11/14 10:50:28;;;;;;;10.25;8.18;;;;;15.10;101014.00;;;;5053387;28;20229;-78
2022/11/14 10:53:00;;;;;;;10.02;8.25;;;;;15.20;101004.00;;;;5051261;28;20200;-78
2022/11/14 10:55:28;;;;;;;11.50;8.70;;;;;15.30;101007.00;;;;5054107;28;20202;-77
2022/11/14 10:57:56;;;;;;;11.50;8.35;;;;;15.30;101002.00;;;;5051786;28;20199;-77
2022/11/14 11:00:24;;;;;;;11.85;8.60;;;;;15.40;100991.00;;;;5052375;28;20203;-77
2022/11/14 11:02:53;;;;;;;11.63;8.57;;;;;15.50;100989.00;;;;5053201;28;20200;-77
2022/11/14 11:05:22;;;;;;;11.40;8.60;;;;;15.50;100982.00;;;;5053349;28;20213;-77
2022/11/14 11:13:35;;;;;;;9.32;7.30;;;;;15.70;100978.00;;;;5051139;28;20622;-77
2022/11/14 11:16:04;;;;;;;8.73;7.55;;;;;15.80;100977.00;;;;5053298;28;20201;-78
2022/11/14 11:18:33;;;;;;;9.85;7.38;;;;;15.90;100977.00;;;;5059881;28;20235;-77
2022/11/14 11:21:07;;;;;;;10.70;8.10;;;;;15.90;100980.00;;;;5057933;28;20212;-78
2022/11/14 11:23:35;;;;;;;9.38;7.47;;;;;16.00;100973.00;;;;5048270;28;20195;-78
2022/11/14 11:26:07;;;;;;;9.40;7.63;;;;;16.10;100976.00;;;;5056288;28;20586;-78
2022/11/14 11:28:36;;;;;;;10.93;8.02;;;;;16.10;100970.00;;;;5051667;28;20203;-77
2022/11/14 11:31:05;;;;;;;10.18;8.00;;;;;16.10;100962.00;;;;5058755;28;20598;-78
2022/11/14 11:33:33;;;;;;;10.95;8.60;;;;;16.20;100950.00;;;;5049810;28;20195;-78
2022/11/14 11:36:03;;;;;;;10.32;8.15;;;;;16.20;100957.00;;;;5052563;28;20230;-79
2022/11/14 11:38:32;;;;;;;10.23;8.32;;;;;16.30;100958.00;;;;5057718;28;20211;-79
2022/11/14 11:41:12;;;;;;;8.48;7.35;;;;;16.20;100956.00;;;;5048167;28;20275;-78
2022/11/14 11:43:45;;;;;;;10.73;7.68;;;;;16.30;100957.00;;;;5051059;28;20205;-78
2022/11/14 11:46:19;;;;;;;11.32;7.72;;;;;16.40;100959.00;;;;5062779;28;20557;-78
2022/11/14 11:48:52;;;;;;;10.57;8.38;;;;;16.40;100955.00;;;;5058936;28;20680;-78
2022/11/14 11:51:25;;;;;;;10.95;7.90;;;;;16.50;100960.00;;;;5049394;28;20757;-78
2022/11/14 11:54:00;;;;;;;9.07;7.30;;;;;16.50;100957.00;;;;5048257;28;20203;-78
2022/11/14 11:56:31;;;;;;;9.25;7.75;;;;;16.50;100957.00;;;;5057687;28;20199;-79
2022/11/14 11:59:07;;;;;;;8.90;7.40;;;;;16.60;100957.00;;;;5055329;28;20458;-78
2022/11/14 12:01:34;;;;;;;11.02;8.57;;;;;16.60;100956.00;;;;5046181;28;20736;-78
2022/11/14 12:04:02;;;;;;;10.45;8.23;;;;;16.70;100960.00;;;;5059282;28;20209;-78
2022/11/14 12:06:36;;;;;;;10.88;8.32;;;;;16.70;100948.00;;;;5057398;28;20674;-78
2022/11/14 12:09:14;;;;;;;10.95;8.77;;;;;16.70;100958.00;;;;5052458;28;20290;-78
2022/11/14 12:11:48;;;;;;;11.07;8.65;;;;;16.70;100951.00;;;;5064056;28;20195;-78